Time;durP1;ratioP1;P1;durP2;ratioP2;P2;SDS_P1;SDS_P2;PMS_P1;PMS_P2;Temp;Humidity;BMP_temperature;BMP_pressure;BME280_temperature;BME280_humidity;BME280_pressure;Samples;Min_cycle;Max_cycle;Signal;HPM_P1;HPM_P2
2021/09/04 00:00:57;;;;;;;7.25;3.10;;;;;;;19.87;47.08;99877.03;5049826;28;20021;-48
2021/09/04 00:03:23;;;;;;;4.70;3.13;;;;;;;19.70;47.78;99876.38;5050132;28;20036;-50
2021/09/04 00:05:48;;;;;;;4.85;3.17;;;;;;;19.67;47.52;99877.72;5050096;28;20082;-48
2021/09/04 00:08:14;;;;;;;4.20;3.08;;;;;;;19.89;47.49;99874.09;5049810;28;20036;-49
2021/09/04 00:10:39;;;;;;;6.80;3.20;;;;;;;19.67;47.92;99869.63;5049542;28;20107;-48
2021/09/04 00:13:05;;;;;;;7.72;3.20;;;;;;;19.52;48.12;99869.53;5049763;28;20497;-51
2021/09/04 00:15:30;;;;;;;4.38;3.10;;;;;;;19.56;48.13;99853.63;5049713;28;20021;-48
2021/09/04 00:17:56;;;;;;;5.63;2.72;;;;;;;19.72;47.98;99855.38;5050983;28;20025;-48
2021/09/04 00:20:21;;;;;;;4.97;3.20;;;;;;;19.87;47.46;99862.75;5053680;28;20487;-49
2021/09/04 00:22:46;;;;;;;5.20;3.15;;;;;;;19.80;47.70;99865.69;5053449;28;20281;-47
2021/09/04 00:25:12;;;;;;;4.88;3.17;;;;;;;19.89;47.76;99874.09;5044157;28;20026;-47
2021/09/04 00:27:37;;;;;;;5.35;3.10;;;;;;;19.92;47.32;99866.28;5033259;28;20473;-47
2021/09/04 00:30:03;;;;;;;5.07;3.00;;;;;;;19.94;47.25;99876.03;5033527;28;20026;-48
2021/09/04 00:32:29;;;;;;;5.75;3.05;;;;;;;19.90;47.56;99876.53;5033339;28;20037;-49
2021/09/04 00:34:54;;;;;;;5.20;3.10;;;;;;;20.03;47.31;99874.44;5033535;28;20032;-47
2021/09/04 00:37:20;;;;;;;5.45;3.13;;;;;;;20.07;47.04;99875.56;5033357;28;20144;-46
2021/09/04 00:39:45;;;;;;;5.43;3.10;;;;;;;19.99;47.40;99871.47;5033648;28;20034;-46
2021/09/04 00:42:12;;;;;;;4.82;3.10;;;;;;;19.99;47.25;99876.03;5033193;28;20029;-47
2021/09/04 00:44:37;;;;;;;6.18;3.22;;;;;;;19.92;47.36;99868.97;5033004;28;20495;-47
2021/09/04 00:47:04;;;;;;;5.30;3.00;;;;;;;19.97;47.34;99878.19;5033086;28;20057;-46
2021/09/04 00:49:30;;;;;;;5.95;3.40;;;;;;;19.90;47.68;99879.22;5033571;28;20030;-46
2021/09/04 00:51:55;;;;;;;6.13;2.92;;;;;;;20.01;47.16;99877.41;5033285;28;20112;-47
2021/09/04 00:54:21;;;;;;;4.35;3.08;;;;;;;20.03;47.25;99883.38;5032874;28;20358;-48
2021/09/04 00:56:46;;;;;;;6.45;3.13;;;;;;;19.87;47.92;99870.84;5032635;28;20025;-50
2021/09/04 00:59:12;;;;;;;4.40;3.00;;;;;;;19.87;47.77;99874.34;5031400;28;20087;-48
2021/09/04 01:01:37;;;;;;;7.40;2.92;;;;;;;19.84;48.03;99874.09;5015113;28;20017;-49
2021/09/04 01:04:03;;;;;;;4.38;2.80;;;;;;;19.87;47.77;99881.63;5032848;28;20022;-48
2021/09/04 01:06:28;;;;;;;6.82;2.90;;;;;;;19.80;47.82;99868.38;5032459;28;20057;-48
2021/09/04 01:08:54;;;;;;;5.63;2.95;;;;;;;19.89;47.85;99868.69;5032461;28;20048;-48
2021/09/04 01:11:19;;;;;;;4.60;2.88;;;;;;;19.98;47.54;99872.53;5031558;28;20026;-51
2021/09/04 01:13:45;;;;;;;4.35;2.80;;;;;;;20.01;47.43;99871.19;5032742;28;20021;-49
2021/09/04 01:16:10;;;;;;;4.30;3.08;;;;;;;19.84;47.48;99877.59;5032692;28;20103;-48
2021/09/04 01:18:36;;;;;;;4.78;2.85;;;;;;;19.83;47.80;99872.44;5032388;28;20428;-48
2021/09/04 01:21:05;;;;;;;4.72;2.80;;;;;;;19.75;48.12;99871.06;5032298;28;20104;-47
2021/09/04 01:23:31;;;;;;;5.60;2.80;;;;;;;19.73;48.10;99868.59;5032429;28;20064;-48
2021/09/04 01:25:56;;;;;;;6.90;2.90;;;;;;;19.82;47.98;99868.09;5047206;28;20033;-46
2021/09/04 01:28:22;;;;;;;4.78;3.03;;;;;;;19.81;47.63;99872.69;5050760;28;20024;-47
2021/09/04 01:30:47;;;;;;;4.78;3.20;;;;;;;19.84;47.84;99864.09;5051702;28;20025;-47
2021/09/04 01:33:13;;;;;;;4.90;2.90;;;;;;;19.82;47.73;99868.94;5051872;28;20469;-48
2021/09/04 01:35:38;;;;;;;6.43;3.10;;;;;;;19.81;47.81;99861.91;5052203;28;20102;-47
2021/09/04 01:38:04;;;;;;;6.70;3.03;;;;;;;19.80;48.04;99862.16;5051987;28;20037;-51
2021/09/04 01:40:29;;;;;;;9.63;3.10;;;;;;;19.82;47.78;99865.41;5052012;28;20029;-49
2021/09/04 01:42:55;;;;;;;4.07;2.80;;;;;;;19.81;47.91;99863.78;5051846;28;20385;-50
2021/09/04 01:45:21;;;;;;;4.90;3.00;;;;;;;19.75;47.79;99862.16;5051910;28;20032;-50
2021/09/04 01:47:46;;;;;;;5.00;2.88;;;;;;;19.79;48.00;99872.16;5050919;28;20029;-49
2021/09/04 01:50:13;;;;;;;5.22;2.95;;;;;;;19.73;48.05;99859.69;5051947;28;20020;-48
2021/09/04 01:52:40;;;;;;;4.50;2.92;;;;;;;19.69;48.11;99864.78;5051912;28;20388;-51
2021/09/04 01:55:06;;;;;;;6.60;2.95;;;;;;;19.61;48.33;99854.47;5051734;28;20040;-50
2021/09/04 01:57:32;;;;;;;8.48;2.85;;;;;;;19.60;48.19;99854.72;5051202;28;20025;-48
2021/09/04 01:59:57;;;;;;;5.38;2.85;;;;;;;19.72;48.17;99850.81;5051970;28;20064;-49
2021/09/04 02:02:23;;;;;;;4.85;2.60;;;;;;;19.70;48.47;99852.91;5051676;28;20029;-49
2021/09/04 02:04:48;;;;;;;5.05;3.10;;;;;;;19.78;48.06;99858.91;5046747;28;20029;-49
2021/09/04 02:07:14;;;;;;;6.00;3.30;;;;;;;19.78;48.38;99856.22;5031766;28;20075;-50
2021/09/04 02:09:39;;;;;;;6.03;3.20;;;;;;;19.79;48.14;99855.16;5031557;28;20497;-51
2021/09/04 02:12:06;;;;;;;4.28;3.30;;;;;;;19.76;48.30;99853.75;5031539;28;20029;-51
2021/09/04 02:14:31;;;;;;;5.65;3.00;;;;;;;19.78;48.56;99843.53;5031433;28;20434;-51
2021/09/04 02:16:57;;;;;;;6.38;2.95;;;;;;;19.67;48.71;99849.94;5031080;28;20033;-48
2021/09/04 02:19:22;;;;;;;6.10;3.15;;;;;;;19.56;48.98;99851.75;5031672;28;20397;-48
2021/09/04 02:21:48;;;;;;;5.82;3.45;;;;;;;19.47;49.30;99839.78;5031426;28;20094;-48
2021/09/04 02:24:13;;;;;;;7.40;3.40;;;;;;;19.57;49.15;99847.16;5031314;28;20036;-50
2021/09/04 02:26:38;;;;;;;4.75;3.17;;;;;;;19.61;49.17;99848.25;5031239;28;20025;-48
2021/09/04 02:29:04;;;;;;;5.25;3.10;;;;;;;19.54;49.34;99840.38;5031173;28;20044;-51
2021/09/04 02:31:29;;;;;;;5.47;3.20;;;;;;;19.61;49.11;99848.25;5030900;28;20570;-50
2021/09/04 02:33:55;;;;;;;7.53;3.15;;;;;;;19.62;49.02;99844.47;5031084;28;20025;-47
2021/09/04 02:36:21;;;;;;;6.80;3.42;;;;;;;19.46;49.73;99843.59;5031036;28;20373;-46
2021/09/04 02:38:47;;;;;;;5.22;3.63;;;;;;;19.47;49.48;99848.69;5031098;28;20143;-48
2021/09/04 02:41:12;;;;;;;6.38;3.50;;;;;;;19.47;49.81;99848.69;5028787;28;20092;-49
2021/09/04 02:43:38;;;;;;;7.97;4.30;;;;;;;19.62;49.66;99847.19;5030712;28;20029;-50
2021/09/04 02:46:04;;;;;;;10.00;5.28;;;;;;;19.41;49.89;99846.25;5030936;28;20390;-48
2021/09/04 02:48:29;;;;;;;11.40;6.40;;;;;;;19.53;49.08;99841.44;5030833;28;20033;-48
2021/09/04 02:50:54;;;;;;;10.88;7.15;;;;;;;19.54;48.90;99843.09;5031004;28;20033;-47
2021/09/04 02:53:20;;;;;;;10.23;7.10;;;;;;;19.41;49.74;99847.03;5030310;28;20033;-48
2021/09/04 02:55:45;;;;;;;11.48;7.63;;;;;;;19.28;50.17;99842.91;5030574;28;20029;-48
2021/09/04 02:58:11;;;;;;;12.25;8.48;;;;;;;19.28;49.82;99848.28;5030510;28;20025;-48
2021/09/04 03:00:36;;;;;;;13.50;8.68;;;;;;;19.29;49.70;99844.53;5030696;28;20034;-51
2021/09/04 03:03:02;;;;;;;12.82;8.77;;;;;;;19.32;49.99;99849.44;5030260;28;20029;-49
2021/09/04 03:05:28;;;;;;;13.18;8.50;;;;;;;19.32;50.03;99852.13;5030350;28;20091;-48
2021/09/04 03:07:53;;;;;;;17.70;9.35;;;;;;;19.16;50.50;99854.97;5030368;28;20091;-47
2021/09/04 03:10:19;;;;;;;14.80;7.70;;;;;;;18.80;52.53;99843.81;5030262;28;20064;-49
2021/09/04 03:12:44;;;;;;;17.23;9.43;;;;;;;18.84;51.43;99848.47;5030439;28;20029;-49
2021/09/04 03:15:10;;;;;;;10.68;8.32;;;;;;;18.97;51.63;99831.06;5030433;28;20022;-48
2021/09/04 03:17:36;;;;;;;13.23;9.00;;;;;;;19.05;50.71;99833.28;5030481;28;20076;-49
2021/09/04 03:20:02;;;;;;;14.25;9.40;;;;;;;19.12;50.62;99833.88;5030154;28;20088;-47
2021/09/04 03:22:27;;;;;;;12.98;9.23;;;;;;;19.13;50.78;99830.13;5030477;28;20021;-48
2021/09/04 03:24:53;;;;;;;13.80;9.70;;;;;;;19.08;50.83;99831.97;5036561;28;20033;-48
2021/09/04 03:27:18;;;;;;;12.20;9.40;;;;;;;19.16;50.36;99839.59;5050403;28;20040;-47
2021/09/04 03:29:43;;;;;;;11.93;9.43;;;;;;;19.08;50.90;99835.47;5050349;28;20052;-48
2021/09/04 03:32:09;;;;;;;12.48;9.32;;;;;;;19.10;50.73;99837.91;5050135;28;20025;-48
2021/09/04 03:34:34;;;;;;;15.07;9.88;;;;;;;19.06;50.71;99843.00;5050262;28;20032;-48
2021/09/04 03:37:00;;;;;;;14.93;8.93;;;;;;;19.07;50.93;99851.91;5050255;28;20078;-47
2021/09/04 03:39:25;;;;;;;15.07;9.20;;;;;;;19.16;50.78;99855.75;5050410;28;20466;-47
2021/09/04 03:41:51;;;;;;;13.75;9.48;;;;;;;19.19;50.84;99849.03;5049964;28;20037;-48
2021/09/04 03:44:16;;;;;;;13.48;8.93;;;;;;;19.20;50.57;99839.88;5050033;28;20476;-47
2021/09/04 03:46:42;;;;;;;13.93;9.15;;;;;;;19.07;50.91;99844.63;5050149;28;20029;-48
2021/09/04 03:49:07;;;;;;;11.15;8.52;;;;;;;19.11;50.86;99834.97;5049934;28;20083;-46
2021/09/04 03:51:33;;;;;;;9.02;7.85;;;;;;;19.10;51.06;99844.13;5050181;28;20021;-46
2021/09/04 03:53:59;;;;;;;14.55;8.38;;;;;;;19.00;51.30;99845.91;5052595;28;20083;-49
2021/09/04 03:56:25;;;;;;;12.75;7.80;;;;;;;18.94;51.41;99829.72;5053972;28;20083;-49
2021/09/04 03:58:50;;;;;;;12.32;8.75;;;;;;;18.93;51.18;99838.84;5053891;28;20489;-48
2021/09/04 04:01:17;;;;;;;14.50;8.45;;;;;;;18.85;51.51;99838.50;5053859;28;20038;-49
2021/09/04 04:03:42;;;;;;;17.80;9.18;;;;;;;18.82;51.82;99841.72;5053724;28;20139;-48
2021/09/04 04:06:08;;;;;;;11.00;8.55;;;;;;;18.78;51.75;99854.06;5053771;28;20037;-47
2021/09/04 04:08:33;;;;;;;14.38;8.63;;;;;;;18.70;51.93;99858.03;5053264;28;20449;-47
2021/09/04 04:11:09;;;;;;;12.57;8.70;;;;;;;18.78;51.94;99856.75;5053721;28;20083;-47
2021/09/04 04:13:35;;;;;;;12.85;7.60;;;;;;;18.80;52.38;99868.94;5053708;28;20049;-46
2021/09/04 04:16:00;;;;;;;14.35;8.20;;;;;;;19.16;52.53;99868.44;5053382;28;20024;-47
2021/09/04 04:18:25;;;;;;;10.85;6.68;;;;;;;19.51;52.93;99876.81;5052887;28;20028;-49
2021/09/04 04:20:51;;;;;;;10.48;7.25;;;;;;;20.02;50.24;99872.81;5051409;28;20118;-47
2021/09/04 04:23:16;;;;;;;11.48;6.60;;;;;;;20.33;49.61;99876.44;5052720;28;20044;-48
2021/09/04 04:25:42;;;;;;;9.68;6.53;;;;;;;20.77;48.74;99884.19;5039220;28;20037;-48
2021/09/04 04:28:07;;;;;;;8.70;6.43;;;;;;;21.28;46.95;99878.00;5032589;28;20033;-47
2021/09/04 04:30:33;;;;;;;9.40;6.60;;;;;;;21.56;45.72;99879.34;5032834;28;20030;-48
2021/09/04 04:32:58;;;;;;;8.93;6.78;;;;;;;21.86;44.81;99873.06;5032492;28;20418;-49
2021/09/04 04:35:24;;;;;;;8.52;6.32;;;;;;;22.11;43.96;99882.22;5032510;28;20022;-48
2021/09/04 04:37:49;;;;;;;8.57;6.65;;;;;;;22.29;44.18;99888.13;5032725;28;20033;-50
2021/09/04 04:40:14;;;;;;;13.00;7.10;;;;;;;22.58;43.19;99882.81;5032332;28;20044;-47
2021/09/04 04:42:41;;;;;;;12.63;6.70;;;;;;;22.84;42.09;99887.00;5032457;28;20505;-47
2021/09/04 04:45:06;;;;;;;9.38;5.90;;;;;;;22.88;41.62;99876.41;5032275;28;20113;-48
2021/09/04 04:47:32;;;;;;;11.18;6.22;;;;;;;22.95;41.51;99876.91;5032362;28;20109;-48
2021/09/04 04:49:58;;;;;;;9.13;6.15;;;;;;;23.31;41.10;99884.00;5032470;28;20519;-50
2021/09/04 04:52:24;;;;;;;12.55;6.95;;;;;;;23.46;40.67;99883.84;5032129;28;20108;-48
2021/09/04 04:54:49;;;;;;;11.07;6.47;;;;;;;23.81;40.01;99890.84;5031974;28;20113;-50
2021/09/04 04:57:15;;;;;;;8.73;6.35;;;;;;;23.99;39.61;99894.75;5032132;28;20033;-50
2021/09/04 04:59:40;;;;;;;7.22;5.90;;;;;;;24.12;39.21;99887.81;5031967;28;20029;-51
2021/09/04 05:02:06;;;;;;;11.10;5.75;;;;;;;24.34;38.66;99884.53;5032050;28;20041;-48
2021/09/04 05:04:31;;;;;;;9.90;6.20;;;;;;;24.36;38.36;99886.97;5030657;28;20492;-49
2021/09/04 05:06:57;;;;;;;9.45;5.97;;;;;;;24.74;37.85;99882.38;5031980;28;20029;-49
2021/09/04 05:09:22;;;;;;;8.85;5.97;;;;;;;25.10;37.00;99879.13;5031649;28;20061;-50
2021/09/04 05:11:48;;;;;;;12.05;6.57;;;;;;;25.10;36.75;99875.59;5031736;28;20033;-49
2021/09/04 05:14:13;;;;;;;7.18;5.57;;;;;;;25.29;35.87;99861.97;5031718;28;20029;-48
2021/09/04 05:16:39;;;;;;;10.10;5.30;;;;;;;25.36;36.15;99863.19;5041400;28;20028;-47
2021/09/04 05:19:04;;;;;;;10.02;5.38;;;;;;;25.87;34.86;99860.63;5051415;28;20063;-47
2021/09/04 05:21:30;;;;;;;11.90;5.60;;;;;;;26.02;34.92;99865.78;5051407;28;20656;-49
2021/09/04 05:23:55;;;;;;;8.30;5.32;;;;;;;26.31;34.03;99861.94;5051212;28;20039;-49
2021/09/04 05:26:21;;;;;;;9.38;5.30;;;;;;;26.65;33.55;99857.94;5051157;28;20060;-51
2021/09/04 05:28:46;;;;;;;9.60;5.13;;;;;;;26.59;33.59;99864.59;5051342;28;20562;-51
2021/09/04 05:31:12;;;;;;;9.48;5.22;;;;;;;26.98;33.17;99852.25;5051105;28;20021;-51
2021/09/04 05:33:37;;;;;;;13.55;8.43;;;;;;;27.29;32.78;99864.06;5050942;28;20561;-50
2021/09/04 05:36:03;;;;;;;11.95;8.00;;;;;;;27.62;31.74;99866.47;5051251;28;20499;-47
2021/09/04 05:38:28;;;;;;;12.82;5.57;;;;;;;27.27;31.77;99877.22;5051335;28;20033;-47
2021/09/04 05:40:54;;;;;;;11.55;8.48;;;;;;;27.62;31.52;99877.41;5051281;28;20484;-47
2021/09/04 05:43:20;;;;;;;8.70;5.18;;;;;;;27.71;31.49;99874.72;5050884;28;20056;-47
2021/09/04 05:45:49;;;;;;;9.25;5.22;;;;;;;27.36;32.01;99874.56;5050692;28;20028;-47
2021/09/04 05:48:14;;;;;;;13.48;5.20;;;;;;;27.61;31.83;99872.28;5050984;28;20021;-48
2021/09/04 05:50:40;;;;;;;8.20;4.90;;;;;;;27.19;31.95;99871.66;5050586;28;20044;-47
2021/09/04 05:53:05;;;;;;;8.02;5.13;;;;;;;26.76;32.83;99869.44;5051127;28;20491;-47
2021/09/04 05:55:31;;;;;;;7.72;4.63;;;;;;;26.88;32.55;99864.22;5050773;28;20090;-46
2021/09/04 05:57:56;;;;;;;6.85;4.53;;;;;;;27.24;32.62;99877.81;5049821;28;20029;-49
2021/09/04 06:00:22;;;;;;;6.25;5.10;;;;;;;27.18;33.04;99878.25;5049951;28;20370;-47
2021/09/04 06:02:47;;;;;;;9.70;6.15;;;;;;;27.45;31.97;99875.38;5050693;28;20067;-49
2021/09/04 06:05:12;;;;;;;7.93;4.78;;;;;;;28.12;31.38;99879.09;5042630;28;20079;-47
2021/09/04 06:07:38;;;;;;;8.68;4.95;;;;;;;28.64;30.36;99876.47;5029997;28;20721;-51
2021/09/04 06:10:04;;;;;;;9.90;6.50;;;;;;;28.86;29.90;99874.69;5029625;28;20052;-47
2021/09/04 06:12:30;;;;;;;7.10;4.82;;;;;;;28.91;29.90;99876.47;5029486;28;20109;-46
2021/09/04 06:14:55;;;;;;;8.13;4.82;;;;;;;29.29;29.31;99886.75;5030054;28;20021;-50
2021/09/04 06:17:21;;;;;;;10.82;5.10;;;;;;;29.63;28.80;99880.38;5029649;28;20041;-45
2021/09/04 06:19:46;;;;;;;9.55;5.80;;;;;;;29.54;29.00;99874.91;5029806;28;20029;-48
2021/09/04 06:22:12;;;;;;;6.25;4.90;;;;;;;29.71;29.35;99873.25;5030385;28;20323;-48
2021/09/04 06:24:37;;;;;;;9.95;5.28;;;;;;;28.80;29.90;99873.25;5033959;28;20013;-47
2021/09/04 06:27:03;;;;;;;7.63;5.13;;;;;;;29.20;29.45;99841.00;5049455;28;20029;-48
2021/09/04 06:29:28;;;;;;;8.23;5.18;;;;;;;29.15;29.92;99885.00;5049234;28;20141;-48
2021/09/04 06:31:53;;;;;;;13.77;5.88;;;;;;;29.07;29.56;99872.09;5049128;28;20033;-48
2021/09/04 06:34:19;;;;;;;6.18;4.90;;;;;;;29.46;29.50;99881.25;5048982;28;20033;-47
2021/09/04 06:36:44;;;;;;;11.35;5.55;;;;;;;30.07;28.27;99881.00;5049825;28;20033;-46
2021/09/04 06:39:10;;;;;;;9.10;4.88;;;;;;;30.29;27.97;99877.19;5050496;28;20036;-46
2021/09/04 06:41:35;;;;;;;7.53;4.90;;;;;;;30.63;27.23;99874.53;5050813;28;20658;-51
2021/09/04 06:44:01;;;;;;;9.68;7.68;;;;;;;30.64;27.51;99876.97;5050250;28;20024;-48
2021/09/04 06:46:26;;;;;;;10.48;5.05;;;;;;;31.06;27.28;99882.44;5050264;28;20035;-50
2021/09/04 06:48:52;;;;;;;7.50;4.90;;;;;;;30.88;27.41;99887.28;5050114;28;20025;-50
2021/09/04 06:51:17;;;;;;;6.90;4.65;;;;;;;31.17;27.07;99899.31;5050197;28;20025;-45
2021/09/04 06:53:43;;;;;;;6.63;4.40;;;;;;;31.35;26.53;99905.44;5049881;28;20083;-48
2021/09/04 06:56:08;;;;;;;6.57;4.65;;;;;;;31.65;26.31;99892.34;5049640;28;20032;-46
2021/09/04 06:58:34;;;;;;;7.63;4.63;;;;;;;31.24;26.49;99893.25;5048835;28;20028;-48
2021/09/04 07:01:00;;;;;;;9.43;4.70;;;;;;;31.60;26.31;99883.53;5049171;28;20428;-48
2021/09/04 07:03:26;;;;;;;11.02;5.03;;;;;;;31.54;26.23;99874.69;5049598;28;20020;-47
2021/09/04 07:05:52;;;;;;;6.22;4.53;;;;;;;31.70;26.08;99874.81;5049529;28;20138;-48
2021/09/04 07:08:17;;;;;;;8.50;5.93;;;;;;;31.99;25.75;99861.97;5048501;28;20036;-51
2021/09/04 07:10:42;;;;;;;7.15;4.65;;;;;;;32.18;25.68;99856.72;5049472;28;20531;-48
2021/09/04 07:13:08;;;;;;;12.13;4.93;;;;;;;31.47;26.46;99875.25;5049782;28;20032;-49
2021/09/04 07:15:34;;;;;;;6.15;4.30;;;;;;;31.65;26.91;99875.06;5049568;28;20521;-47
2021/09/04 07:17:59;;;;;;;10.27;5.07;;;;;;;31.61;26.21;99885.13;5049540;28;20053;-46
2021/09/04 07:20:24;;;;;;;10.23;5.10;;;;;;;30.48;27.70;99893.22;5049680;28;20033;-47
2021/09/04 07:22:50;;;;;;;9.43;4.97;;;;;;;31.08;26.11;99887.59;5049398;28;20086;-49
2021/09/04 07:25:16;;;;;;;7.35;4.90;;;;;;;30.55;27.36;99890.75;5039601;28;20047;-48
2021/09/04 07:27:43;;;;;;;9.82;4.63;;;;;;;30.91;26.96;99881.13;5031212;28;20050;-48
2021/09/04 07:30:09;;;;;;;11.35;5.25;;;;;;;31.28;26.65;99874.94;5035866;28;20033;-51
2021/09/04 07:32:34;;;;;;;6.35;4.50;;;;;;;31.51;25.88;99867.13;5036432;28;20028;-48
2021/09/04 07:35:00;;;;;;;8.15;4.35;;;;;;;32.11;25.89;99856.50;5036276;28;20033;-50
2021/09/04 07:37:25;;;;;;;8.57;4.30;;;;;;;32.68;24.88;99851.94;5036297;28;20021;-50
2021/09/04 07:39:51;;;;;;;7.25;4.55;;;;;;;32.81;24.45;99849.94;5036212;28;20423;-48
2021/09/04 07:42:16;;;;;;;9.80;4.65;;;;;;;32.38;25.43;99849.44;5035672;28;20084;-48
2021/09/04 07:44:42;;;;;;;10.80;5.60;;;;;;;31.75;25.41;99844.34;5036044;28;20032;-47
2021/09/04 07:47:07;;;;;;;6.53;5.03;;;;;;;31.63;26.04;99845.16;5036023;28;20051;-48
2021/09/04 07:49:33;;;;;;;8.02;4.75;;;;;;;31.44;26.37;99848.41;5035906;28;20441;-50
2021/09/04 07:51:58;;;;;;;6.68;5.07;;;;;;;31.37;26.47;99839.91;5036070;28;20048;-48
2021/09/04 07:54:24;;;;;;;8.57;4.38;;;;;;;31.88;25.70;99843.19;5034744;28;20114;-48
2021/09/04 07:56:49;;;;;;;10.48;4.25;;;;;;;32.00;25.46;99847.09;5036086;28;20116;-44
2021/09/04 07:59:14;;;;;;;8.00;4.50;;;;;;;31.48;25.97;99840.31;5035799;28;20030;-49
2021/09/04 08:01:40;;;;;;;7.93;4.63;;;;;;;31.46;26.31;99843.41;5035609;28;20040;-46
2021/09/04 08:04:05;;;;;;;5.38;3.75;;;;;;;31.06;26.29;99822.00;5035653;28;20025;-48
2021/09/04 08:06:31;;;;;;;41.05;30.33;;;;;;;31.52;25.84;99831.03;5035604;28;20041;-48
2021/09/04 08:08:56;;;;;;;8.55;4.95;;;;;;;30.81;27.33;99837.56;5035701;28;20049;-48
2021/09/04 08:11:22;;;;;;;7.50;4.30;;;;;;;31.29;26.42;99833.38;5035612;28;20029;-47
2021/09/04 08:13:47;;;;;;;6.53;4.00;;;;;;;31.15;26.52;99828.19;5035519;28;20029;-47
2021/09/04 08:16:12;;;;;;;5.20;3.92;;;;;;;31.82;26.50;99841.81;5035476;28;20470;-47
2021/09/04 08:18:38;;;;;;;9.65;3.78;;;;;;;32.31;25.37;99843.72;5035602;28;20036;-49
2021/09/04 08:21:03;;;;;;;7.40;4.35;;;;;;;32.02;24.93;99847.56;5035338;28;20025;-48
2021/09/04 08:23:29;;;;;;;39.70;30.48;;;;;;;32.08;25.19;99848.94;5035724;28;20029;-46
2021/09/04 08:25:54;;;;;;;9.00;4.10;;;;;;;31.71;25.78;99837.94;5050385;28;20028;-47
2021/09/04 08:28:20;;;;;;;11.52;4.00;;;;;;;30.69;26.94;99834.75;5055654;28;20021;-48
2021/09/04 08:30:45;;;;;;;5.30;3.67;;;;;;;30.72;26.83;99832.13;5055725;28;20040;-47
2021/09/04 08:33:11;;;;;;;26.02;18.75;;;;;;;30.58;27.17;99835.16;5055372;28;20029;-48
2021/09/04 08:35:36;;;;;;;7.53;4.25;;;;;;;30.31;27.94;99839.22;5055193;28;20032;-47
2021/09/04 08:38:06;;;;;;;5.07;3.90;;;;;;;30.65;27.20;99839.31;5055214;28;20471;-47
2021/09/04 08:40:33;;;;;;;5.95;3.58;;;;;;;31.54;26.16;99834.25;5051197;28;20068;-49
2021/09/04 08:42:59;;;;;;;5.13;3.75;;;;;;;31.19;26.71;99828.31;5052183;28;20106;-48
2021/09/04 08:45:25;;;;;;;6.13;3.70;;;;;;;30.55;27.00;99833.09;5052030;28;20025;-49
2021/09/04 08:47:51;;;;;;;6.72;3.63;;;;;;;30.56;26.69;99822.94;5050830;28;20105;-48
2021/09/04 08:50:18;;;;;;;8.25;3.40;;;;;;;31.45;26.39;99829.97;5034372;28;20024;-50
2021/09/04 08:52:43;;;;;;;6.68;3.60;;;;;;;32.06;25.52;99835.53;5051087;28;20033;-47
2021/09/04 08:55:09;;;;;;;11.02;3.92;;;;;;;32.85;24.78;99826.84;5050645;28;20147;-50
2021/09/04 08:57:34;;;;;;;5.63;3.70;;;;;;;33.56;23.96;99829.06;5052290;28;20032;-47
2021/09/04 09:00:01;;;;;;;5.93;3.58;;;;;;;33.54;23.21;99834.94;5051718;28;20426;-49
2021/09/04 09:02:26;;;;;;;6.03;3.63;;;;;;;32.50;24.25;99829.34;5051505;28;20029;-49
2021/09/04 09:05:04;;;;;;;8.40;3.70;;;;;;;32.36;24.66;99826.19;5051946;28;20025;-49
2021/09/04 09:07:43;;;;;;;6.90;4.13;;;;;;;31.58;25.88;99819.81;5051710;28;20493;-47
2021/09/04 09:10:33;;;;;;;7.38;3.80;;;;;;;32.52;24.91;99813.28;5051857;28;20059;-49
2021/09/04 09:12:58;;;;;;;5.40;4.10;;;;;;;32.16;24.97;99815.00;5051578;28;20033;-48
2021/09/04 09:15:28;;;;;;;7.72;3.70;;;;;;;31.67;25.50;99815.81;5050902;28;20024;-47
2021/09/04 09:18:06;;;;;;;6.82;3.95;;;;;;;31.37;25.66;99815.19;5052047;28;20025;-48
2021/09/04 09:20:31;;;;;;;6.05;3.70;;;;;;;31.43;25.93;99824.00;5051728;28;20036;-46
2021/09/04 09:23:10;;;;;;;7.10;3.83;;;;;;;31.50;26.11;99827.81;5051739;28;20028;-49
2021/09/04 09:25:36;;;;;;;8.30;3.97;;;;;;;31.43;26.16;99832.25;5038630;28;20041;-50
2021/09/04 09:28:14;;;;;;;4.85;3.75;;;;;;;30.88;26.36;99809.53;5031461;28;20037;-48
2021/09/04 09:30:40;;;;;;;9.20;4.20;;;;;;;30.77;26.42;99804.47;5031584;28;20040;-46
2021/09/04 09:33:06;;;;;;;6.32;3.80;;;;;;;31.82;25.65;99811.56;5031182;28;20470;-48
2021/09/04 09:35:36;;;;;;;6.28;3.72;;;;;;;31.33;25.96;99803.25;5031587;28;20500;-46
2021/09/04 09:38:03;;;;;;;5.90;3.97;;;;;;;31.26;25.96;99794.78;5031457;28;20102;-47
2021/09/04 09:40:29;;;;;;;10.18;4.55;;;;;;;32.12;24.87;99781.84;5031815;28;20063;-49
2021/09/04 09:42:54;;;;;;;9.27;5.20;;;;;;;30.77;26.59;99776.22;5031416;28;20055;-50
2021/09/04 09:45:20;;;;;;;7.25;5.00;;;;;;;31.53;25.42;99774.13;5031124;28;20461;-49
2021/09/04 09:47:52;;;;;;;9.65;4.40;;;;;;;30.83;26.62;99766.63;5013634;28;20142;-48
2021/09/04 09:50:18;;;;;;;6.35;4.78;;;;;;;31.70;25.26;99776.63;5030643;28;20163;-47
2021/09/04 09:52:44;;;;;;;8.18;4.63;;;;;;;32.51;24.31;99767.63;5030772;28;20028;-49
2021/09/04 09:55:10;;;;;;;5.43;4.28;;;;;;;32.44;23.79;99761.91;5029715;28;20457;-47
2021/09/04 09:57:35;;;;;;;5.18;4.13;;;;;;;32.53;23.30;99768.88;5031350;28;20029;-51
2021/09/04 10:00:01;;;;;;;5.28;4.10;;;;;;;30.88;24.82;99762.84;5029883;28;20029;-48
2021/09/04 10:02:26;;;;;;;5.47;3.88;;;;;;;31.42;24.75;99759.97;5013110;28;20040;-48
2021/09/04 10:04:52;;;;;;;6.93;4.28;;;;;;;32.21;23.83;99754.19;5029646;28;20032;-48
2021/09/04 10:07:17;;;;;;;5.85;3.92;;;;;;;32.14;23.17;99756.75;5029519;28;20034;-47
2021/09/04 10:09:43;;;;;;;4.72;3.92;;;;;;;32.42;22.95;99755.94;5012983;28;20160;-47
2021/09/04 10:12:08;;;;;;;6.68;4.03;;;;;;;32.68;22.80;99742.53;5013129;28;20044;-49
2021/09/04 10:14:34;;;;;;;7.50;4.07;;;;;;;33.06;23.02;99735.66;5030626;28;20029;-48
2021/09/04 10:17:00;;;;;;;5.95;4.07;;;;;;;32.32;23.68;99741.53;5029564;28;20032;-49
2021/09/04 10:19:27;;;;;;;5.10;3.90;;;;;;;31.17;25.29;99720.69;5029567;28;20026;-48
2021/09/04 10:22:03;;;;;;;6.07;3.75;;;;;;;31.82;24.99;99723.53;5030661;28;20022;-47
2021/09/04 10:24:53;;;;;;;7.05;3.80;;;;;;;32.05;24.88;99728.56;5033899;28;20116;-47
2021/09/04 10:27:36;;;;;;;6.70;3.88;;;;;;;32.22;24.20;99716.47;5050727;28;20028;-48
2021/09/04 10:30:26;;;;;;;5.28;3.67;;;;;;;32.86;23.73;99722.94;5050521;28;20024;-48
2021/09/04 10:33:17;;;;;;;9.48;4.57;;;;;;;32.09;24.15;99715.72;5050265;28;20021;-47
2021/09/04 10:35:48;;;;;;;7.90;3.75;;;;;;;32.12;23.99;99720.50;5050168;28;20100;-49
2021/09/04 10:38:20;;;;;;;6.60;3.75;;;;;;;31.69;24.68;99710.97;5050479;28;20036;-49
2021/09/04 10:41:08;;;;;;;7.18;3.83;;;;;;;32.38;23.46;99703.53;5050631;28;20037;-50
2021/09/04 10:43:34;;;;;;;7.15;3.75;;;;;;;32.33;23.53;99696.34;5044283;28;20037;-48
2021/09/04 10:45:59;;;;;;;5.95;4.10;;;;;;;32.70;22.59;99696.16;5048863;28;20032;-47
2021/09/04 10:48:24;;;;;;;5.93;3.92;;;;;;;32.12;23.35;99690.22;5032303;28;20025;-47
2021/09/04 10:51:01;;;;;;;7.03;3.70;;;;;;;32.61;22.18;99697.50;5032028;28;20025;-49
2021/09/04 10:53:42;;;;;;;4.82;3.63;;;;;;;32.62;22.43;99693.59;5050157;28;20024;-48
2021/09/04 10:56:25;;;;;;;6.72;4.10;;;;;;;32.22;23.09;99688.94;5049930;28;20456;-49
2021/09/04 10:58:51;;;;;;;4.43;3.45;;;;;;;32.25;23.84;99685.47;5050244;28;20024;-50
2021/09/04 11:01:18;;;;;;;5.60;3.88;;;;;;;33.19;22.54;99686.78;5049979;28;20033;-48
2021/09/04 11:03:49;;;;;;;4.95;3.75;;;;;;;33.54;21.86;99687.97;5049170;28;20028;-47
2021/09/04 11:06:19;;;;;;;5.95;3.83;;;;;;;32.88;21.77;99684.78;5032577;28;20099;-48
2021/09/04 11:08:45;;;;;;;7.13;4.03;;;;;;;33.16;21.47;99681.97;5049686;28;20024;-47
2021/09/04 11:11:29;;;;;;;6.38;3.75;;;;;;;33.35;20.86;99680.44;5049811;28;20029;-48
2021/09/04 11:14:23;;;;;;;5.55;3.80;;;;;;;32.83;21.03;99679.56;5048443;28;20150;-50
2021/09/04 11:16:51;;;;;;;4.57;3.88;;;;;;;32.54;21.58;99665.03;5049714;28;20550;-45
2021/09/04 11:19:18;;;;;;;5.83;4.20;;;;;;;32.11;22.67;99663.88;5049476;28;20100;-47
2021/09/04 11:21:54;;;;;;;5.28;3.72;;;;;;;32.15;22.81;99667.50;5049640;28;20047;-49
2021/09/04 11:24:23;;;;;;;7.18;4.30;;;;;;;32.64;22.43;99661.78;5047478;28;20151;-47
2021/09/04 11:26:53;;;;;;;5.05;3.78;;;;;;;33.13;21.62;99657.91;5029402;28;20489;-46
2021/09/04 11:29:19;;;;;;;4.07;3.67;;;;;;;33.71;21.49;99653.69;5029920;28;20029;-47